Time;durP1;ratioP1;P1;durP2;ratioP2;P2;SDS_P1;SDS_P2;PMS_P1;PMS_P2;Temp;Humidity;BMP_temperature;BMP_pressure;BME280_temperature;BME280_humidity;BME280_pressure;Samples;Min_cycle;Max_cycle;Signal;HPM_P1;HPM_P2
2022/08/13 00:02:16;;;;;;;5.50;2.60;;;25.80;71.60;;;;;;5072328;28;20028;-63
2022/08/13 00:04:53;;;;;;;4.30;2.88;;;25.80;71.50;;;;;;5072274;28;20032;-63
2022/08/13 00:07:19;;;;;;;6.82;3.17;;;25.70;71.10;;;;;;5071290;28;20035;-63
2022/08/13 00:09:45;;;;;;;7.25;2.40;;;25.70;70.90;;;;;;5068345;28;20029;-63
2022/08/13 00:15:21;;;;;;;4.22;2.45;;;25.60;70.40;;;;;;5058838;28;20028;-63
2022/08/13 00:17:51;;;;;;;6.88;3.40;;;25.60;70.20;;;;;;5053471;28;20068;-63
2022/08/13 00:20:19;;;;;;;7.28;2.75;;;25.50;70.30;;;;;;5054910;28;20031;-63
2022/08/13 00:22:46;;;;;;;4.35;2.60;;;25.50;70.40;;;;;;5072480;28;20068;-63
2022/08/13 00:25:11;;;;;;;6.43;2.45;;;25.40;70.40;;;;;;5057170;28;20534;-63
2022/08/13 00:27:37;;;;;;;3.97;2.55;;;25.40;70.50;;;;;;5052546;28;20033;-63
2022/08/13 00:30:07;;;;;;;6.15;2.40;;;25.40;70.60;;;;;;5053416;28;20090;-63
2022/08/13 00:32:33;;;;;;;3.17;2.25;;;25.30;70.70;;;;;;5071439;28;20036;-63
2022/08/13 00:35:01;;;;;;;3.92;2.53;;;25.30;70.90;;;;;;5073078;28;20029;-63
2022/08/13 00:37:27;;;;;;;8.32;2.13;;;25.20;71.10;;;;;;5060091;28;20061;-63
2022/08/13 00:39:53;;;;;;;4.13;2.42;;;25.20;71.10;;;;;;5072847;28;20052;-63
2022/08/13 00:42:23;;;;;;;6.15;2.75;;;25.20;71.00;;;;;;5074825;28;20053;-63
2022/08/13 00:44:49;;;;;;;5.60;2.58;;;25.20;70.90;;;;;;5075040;28;20161;-63
2022/08/13 00:50:01;;;;;;;5.00;2.58;;;25.10;70.60;;;;;;5061385;28;20529;-63
2022/08/13 00:52:40;;;;;;;4.10;2.75;;;25.00;70.50;;;;;;5064482;28;20033;-63
2022/08/13 00:55:10;;;;;;;5.28;2.67;;;25.00;70.70;;;;;;5068659;28;20098;-63
2022/08/13 00:57:37;;;;;;;4.38;2.83;;;24.90;70.90;;;;;;5055980;28;20049;-63
2022/08/13 01:00:12;;;;;;;7.97;2.90;;;24.90;71.00;;;;;;5063131;28;20490;-63
2022/08/13 01:03:00;;;;;;;5.57;2.83;;;24.90;71.10;;;;;;5061517;28;20072;-63
2022/08/13 01:05:26;;;;;;;8.73;2.92;;;24.80;71.10;;;;;;5074921;28;20107;-63
2022/08/13 01:07:52;;;;;;;6.38;3.15;;;24.80;71.20;;;;;;5075302;28;20032;-63
2022/08/13 01:10:20;;;;;;;5.15;2.58;;;24.70;71.30;;;;;;5073217;28;20063;-63
2022/08/13 01:12:50;;;;;;;9.02;3.00;;;24.70;71.50;;;;;;5074859;28;20086;-63
2022/08/13 01:15:16;;;;;;;5.07;2.88;;;24.60;71.50;;;;;;5074689;28;20036;-63
2022/08/13 01:17:45;;;;;;;4.82;2.78;;;24.60;71.70;;;;;;5074254;28;20048;-63
2022/08/13 01:20:20;;;;;;;7.05;2.92;;;24.60;71.90;;;;;;5070253;28;20024;-63
2022/08/13 01:22:52;;;;;;;5.95;2.90;;;24.60;72.00;;;;;;5068183;28;20430;-63
2022/08/13 01:25:21;;;;;;;4.97;3.40;;;24.50;72.00;;;;;;5072168;28;20058;-63
2022/08/13 01:27:49;;;;;;;4.70;3.10;;;24.40;72.10;;;;;;5073729;28;20078;-63
2022/08/13 01:30:16;;;;;;;7.32;3.20;;;24.40;72.30;;;;;;5073763;28;20058;-63
2022/08/13 01:32:42;;;;;;;9.02;3.10;;;24.40;72.40;;;;;;5074038;28;20057;-63
2022/08/13 01:35:08;;;;;;;4.80;3.22;;;24.40;72.40;;;;;;5058426;28;20029;-63
2022/08/13 01:37:35;;;;;;;6.35;3.35;;;24.40;72.50;;;;;;5067282;28;20037;-63
2022/08/13 01:40:04;;;;;;;5.25;2.88;;;24.30;72.30;;;;;;5069013;28;20062;-63
2022/08/13 01:42:39;;;;;;;11.57;3.08;;;24.30;72.50;;;;;;5074532;28;20094;-63
2022/08/13 01:45:06;;;;;;;5.20;2.78;;;24.30;72.70;;;;;;5065107;28;20020;-63
2022/08/13 01:50:31;;;;;;;4.90;2.97;;;24.20;73.00;;;;;;5073971;28;20030;-63
2022/08/13 01:53:01;;;;;;;10.80;3.38;;;24.20;73.70;;;;;;5068609;28;20040;-63
2022/08/13 01:55:39;;;;;;;8.05;3.20;;;24.20;74.10;;;;;;5073842;28;20387;-63
2022/08/13 01:58:19;;;;;;;4.55;2.95;;;24.10;74.30;;;;;;5064105;28;20411;-63
2022/08/13 02:00:47;;;;;;;4.63;2.95;;;24.10;74.20;;;;;;5062509;28;20029;-63
2022/08/13 02:03:16;;;;;;;7.05;3.10;;;24.10;74.30;;;;;;5063791;28;20025;-63
2022/08/13 02:05:41;;;;;;;6.20;2.72;;;24.00;74.40;;;;;;5056189;28;20090;-63
2022/08/13 02:08:09;;;;;;;7.80;3.83;;;24.00;74.50;;;;;;5066724;28;20036;-63
2022/08/13 02:10:41;;;;;;;5.93;3.13;;;24.00;74.60;;;;;;5065886;28;20024;-63
2022/08/13 02:13:11;;;;;;;7.63;3.35;;;24.00;75.00;;;;;;5072941;28;20111;-63
2022/08/13 02:15:38;;;;;;;7.22;3.35;;;24.00;75.00;;;;;;5061309;28;20541;-63
2022/08/13 02:18:04;;;;;;;10.63;3.42;;;24.00;75.10;;;;;;5060863;28;20036;-63
2022/08/13 02:20:35;;;;;;;5.38;3.40;;;24.00;75.20;;;;;;5060298;28;20035;-63
2022/08/13 02:23:06;;;;;;;16.15;3.92;;;24.00;75.30;;;;;;5073362;28;20516;-63
2022/08/13 02:25:34;;;;;;;8.02;3.10;;;23.90;75.20;;;;;;5061025;28;20076;-63
2022/08/13 02:27:59;;;;;;;5.93;3.38;;;23.90;75.10;;;;;;5066300;28;20031;-63
2022/08/13 02:30:28;;;;;;;8.38;3.17;;;23.90;74.90;;;;;;5067897;28;20104;-63
2022/08/13 02:32:54;;;;;;;7.72;3.00;;;23.90;74.70;;;;;;5062430;28;20111;-63
2022/08/13 02:35:21;;;;;;;8.45;3.30;;;23.90;74.60;;;;;;5071083;28;20033;-63
2022/08/13 02:37:49;;;;;;;5.85;3.03;;;23.80;74.20;;;;;;5055141;28;20463;-63
2022/08/13 02:43:02;;;;;;;5.10;2.65;;;23.80;73.60;;;;;;5062271;28;20427;-63
2022/08/13 02:45:28;;;;;;;7.22;3.67;;;23.80;73.30;;;;;;5071669;28;20039;-63
2022/08/13 02:47:57;;;;;;;12.13;3.60;;;23.80;73.10;;;;;;5061630;28;20119;-63
2022/08/13 02:50:24;;;;;;;4.15;3.42;;;23.80;72.80;;;;;;5070897;28;20025;-63
2022/08/13 02:52:51;;;;;;;6.38;2.78;;;23.80;72.70;;;;;;5073610;28;20025;-63
2022/08/13 02:55:19;;;;;;;8.93;2.95;;;23.80;72.40;;;;;;5072388;28;20098;-63
2022/08/13 02:57:46;;;;;;;6.55;2.85;;;23.80;72.00;;;;;;5072131;28;20534;-63
2022/08/13 03:00:13;;;;;;;5.03;2.75;;;23.70;71.70;;;;;;5072936;28;20104;-63
2022/08/13 03:02:44;;;;;;;7.90;2.78;;;23.70;71.40;;;;;;5072230;28;20055;-63
2022/08/13 03:05:14;;;;;;;7.05;2.90;;;23.70;71.20;;;;;;5054517;28;20036;-63
2022/08/13 03:07:41;;;;;;;7.03;2.53;;;23.70;70.90;;;;;;5054641;28;20029;-64
2022/08/13 03:10:12;;;;;;;9.48;2.95;;;23.70;70.70;;;;;;5061889;28;20043;-63
2022/08/13 03:12:44;;;;;;;11.82;2.83;;;23.70;70.50;;;;;;5070476;28;20044;-63
2022/08/13 03:15:12;;;;;;;8.65;2.85;;;23.70;70.00;;;;;;5054384;28;20029;-63
2022/08/13 03:17:40;;;;;;;4.35;2.50;;;23.70;69.80;;;;;;5057534;28;20040;-63
2022/08/13 03:20:09;;;;;;;5.30;2.55;;;23.70;69.50;;;;;;5062302;28;20051;-63
2022/08/13 03:22:52;;;;;;;8.85;2.95;;;23.70;69.30;;;;;;5066781;28;20036;-63
2022/08/13 03:25:20;;;;;;;3.90;2.53;;;23.70;69.40;;;;;;5054697;28;20025;-63
2022/08/13 03:27:47;;;;;;;5.18;2.60;;;23.60;69.00;;;;;;5060916;28;20040;-63
2022/08/13 03:30:16;;;;;;;5.07;2.58;;;23.60;68.80;;;;;;5059512;28;20060;-63
2022/08/13 03:32:44;;;;;;;4.13;2.40;;;23.60;68.60;;;;;;5072739;28;20133;-63
2022/08/13 03:35:20;;;;;;;10.27;2.50;;;23.60;68.40;;;;;;5058888;28;20037;-63
2022/08/13 03:37:49;;;;;;;6.32;2.63;;;23.60;68.30;;;;;;5062667;28;20098;-63
2022/08/13 03:40:16;;;;;;;5.72;2.65;;;23.60;68.20;;;;;;5057423;28;20109;-63
2022/08/13 03:42:43;;;;;;;7.70;2.95;;;23.60;68.10;;;;;;5054760;28;20047;-64
2022/08/13 03:45:10;;;;;;;4.00;2.75;;;23.60;68.00;;;;;;5066362;28;20032;-63
2022/08/13 03:47:38;;;;;;;4.28;2.60;;;23.60;67.90;;;;;;5072588;28;20045;-63
2022/08/13 03:50:06;;;;;;;4.60;2.50;;;23.60;67.80;;;;;;5071699;28;20130;-63
2022/08/13 03:52:33;;;;;;;5.65;3.03;;;23.50;67.60;;;;;;5071990;28;20446;-64
2022/08/13 03:55:04;;;;;;;4.28;2.85;;;23.50;67.60;;;;;;5069128;28;20103;-63
2022/08/13 03:57:30;;;;;;;9.88;2.40;;;23.50;67.60;;;;;;5062479;28;20451;-63
2022/08/13 03:59:57;;;;;;;6.32;2.72;;;23.50;67.50;;;;;;5070634;28;20593;-63
2022/08/13 04:02:23;;;;;;;5.60;2.88;;;23.50;67.50;;;;;;5072068;28;20085;-63
2022/08/13 04:04:50;;;;;;;4.40;2.88;;;23.50;67.40;;;;;;5072041;28;20467;-64
2022/08/13 04:07:22;;;;;;;11.98;2.72;;;23.50;67.40;;;;;;5071893;28;20074;-63
2022/08/13 04:09:48;;;;;;;6.63;2.58;;;23.50;67.50;;;;;;5071178;28;20035;-63
2022/08/13 04:12:14;;;;;;;4.53;2.75;;;23.50;67.60;;;;;;5071767;28;20032;-63
2022/08/13 04:14:41;;;;;;;10.00;3.28;;;23.40;67.50;;;;;;5071408;28;20029;-63
2022/08/13 04:17:11;;;;;;;5.00;3.00;;;23.50;67.70;;;;;;5072187;28;20487;-63
2022/08/13 04:19:40;;;;;;;7.75;3.17;;;23.40;67.60;;;;;;5058216;28;20102;-63
2022/08/13 04:22:09;;;;;;;6.28;2.75;;;23.50;67.80;;;;;;5059822;28;20033;-63
2022/08/13 04:24:35;;;;;;;6.43;3.10;;;23.40;67.70;;;;;;5053030;28;20104;-63
2022/08/13 04:27:02;;;;;;;7.82;2.88;;;23.40;67.80;;;;;;5053282;28;20120;-63
2022/08/13 04:29:28;;;;;;;5.97;2.80;;;23.30;67.70;;;;;;5060195;28;20032;-63
2022/08/13 04:31:54;;;;;;;8.27;3.15;;;23.40;67.80;;;;;;5071825;28;20422;-63
2022/08/13 04:34:23;;;;;;;8.82;3.30;;;23.30;67.80;;;;;;5071457;28;20039;-63
2022/08/13 04:36:49;;;;;;;11.30;3.17;;;23.30;68.00;;;;;;5058821;28;20103;-63
2022/08/13 04:39:14;;;;;;;5.32;3.08;;;23.30;67.90;;;;;;5060834;28;20495;-63
2022/08/13 04:41:40;;;;;;;5.50;2.88;;;23.30;67.80;;;;;;5070892;28;20495;-63
2022/08/13 04:44:06;;;;;;;4.03;2.95;;;23.40;67.80;;;;;;5069229;28;20028;-63
2022/08/13 04:46:32;;;;;;;9.32;2.63;;;23.30;67.70;;;;;;5071848;28;20105;-63
2022/08/13 04:48:58;;;;;;;8.20;2.90;;;23.30;67.60;;;;;;5058257;28;20422;-63
2022/08/13 04:51:25;;;;;;;4.68;2.70;;;23.30;67.60;;;;;;5071178;28;20033;-63
2022/08/13 04:53:51;;;;;;;9.75;3.30;;;23.20;67.60;;;;;;5058955;28;20035;-63
2022/08/13 04:56:18;;;;;;;4.85;3.00;;;23.30;67.60;;;;;;5070312;28;20036;-64
2022/08/13 04:58:45;;;;;;;7.18;3.28;;;23.20;67.60;;;;;;5072206;28;20036;-63
2022/08/13 05:01:11;;;;;;;5.97;2.97;;;23.20;67.70;;;;;;5069540;28;20391;-63
2022/08/13 05:03:39;;;;;;;5.80;2.60;;;23.20;68.20;;;;;;5052020;28;20036;-63
2022/08/13 05:06:07;;;;;;;4.80;2.65;;;23.20;68.20;;;;;;5053313;28;20051;-63
2022/08/13 05:08:33;;;;;;;5.53;2.80;;;23.20;68.30;;;;;;5070858;28;20036;-63
2022/08/13 05:11:00;;;;;;;5.47;2.80;;;23.20;68.90;;;;;;5058182;28;20029;-63
2022/08/13 05:13:27;;;;;;;7.28;3.13;;;23.20;69.60;;;;;;5063117;28;20065;-65
2022/08/13 05:15:56;;;;;;;6.45;3.05;;;23.30;70.40;;;;;;5066190;28;20028;-65
2022/08/13 05:18:22;;;;;;;4.40;2.80;;;23.20;70.90;;;;;;5071516;28;20492;-64
2022/08/13 05:20:48;;;;;;;8.82;2.53;;;23.20;71.40;;;;;;5071634;28;20433;-65
2022/08/13 05:23:14;;;;;;;9.98;2.85;;;23.20;71.70;;;;;;5074536;28;20032;-65
2022/08/13 05:25:41;;;;;;;3.65;2.67;;;23.20;71.90;;;;;;5074454;28;20491;-65
2022/08/13 05:28:08;;;;;;;5.00;2.70;;;23.10;72.10;;;;;;5075018;28;20024;-65
2022/08/13 05:30:37;;;;;;;3.88;2.72;;;23.10;72.30;;;;;;5057749;28;20172;-65
2022/08/13 05:33:13;;;;;;;6.50;2.70;;;23.10;72.40;;;;;;5065965;28;20056;-65
2022/08/13 05:35:41;;;;;;;3.50;2.30;;;23.10;72.20;;;;;;5056795;28;20071;-65
2022/08/13 05:38:07;;;;;;;8.75;2.67;;;23.10;71.90;;;;;;5066698;28;20072;-65
2022/08/13 05:40:33;;;;;;;11.90;2.85;;;23.20;71.50;;;;;;5061576;28;20056;-65
2022/08/13 05:42:59;;;;;;;4.35;3.03;;;23.20;71.40;;;;;;5066881;28;20020;-65
2022/08/13 05:45:25;;;;;;;8.82;2.72;;;23.20;71.30;;;;;;5071197;28;20464;-65
2022/08/13 05:47:52;;;;;;;4.60;2.95;;;23.20;71.30;;;;;;5072805;28;20029;-65
2022/08/13 05:50:17;;;;;;;5.88;2.50;;;23.30;71.70;;;;;;5073463;28;20028;-65
2022/08/13 05:52:43;;;;;;;14.05;2.70;;;23.30;71.70;;;;;;5072569;28;20392;-65
2022/08/13 05:55:12;;;;;;;4.38;2.30;;;23.30;71.60;;;;;;5070480;28;20025;-65
2022/08/13 05:57:39;;;;;;;7.50;3.38;;;23.40;71.90;;;;;;5070297;28;20048;-65
2022/08/13 06:05:38;;;;;;;7.97;2.80;;;23.50;71.70;;;;;;5069099;28;20037;-65
2022/08/13 06:08:05;;;;;;;7.25;2.50;;;23.50;71.50;;;;;;5061170;28;20050;-65
2022/08/13 06:10:32;;;;;;;10.70;2.63;;;23.60;71.50;;;;;;5073233;28;20082;-65
2022/08/13 06:12:57;;;;;;;4.63;2.40;;;23.60;71.40;;;;;;5061984;28;20056;-65
2022/08/13 06:15:23;;;;;;;13.02;2.90;;;23.60;71.40;;;;;;5064129;28;20052;-65
2022/08/13 06:17:51;;;;;;;4.70;2.22;;;23.60;71.20;;;;;;5064179;28;20036;-65
2022/08/13 06:20:17;;;;;;;8.93;2.72;;;23.70;71.70;;;;;;5062659;28;20476;-65
2022/08/13 06:22:47;;;;;;;6.80;2.25;;;23.70;71.00;;;;;;5068545;28;20353;-65
2022/08/13 06:25:14;;;;;;;13.68;2.30;;;23.70;70.90;;;;;;5070786;28;20050;-65
2022/08/13 06:27:41;;;;;;;5.85;3.03;;;23.80;70.90;;;;;;5067948;28;20422;-65
2022/08/13 06:30:09;;;;;;;6.07;2.55;;;23.90;71.00;;;;;;5069426;28;20028;-64
2022/08/13 06:32:37;;;;;;;4.30;2.58;;;23.90;71.00;;;;;;5071007;28;20035;-64
2022/08/13 06:35:06;;;;;;;14.98;2.80;;;23.90;70.70;;;;;;5070696;28;20503;-65
2022/08/13 06:37:32;;;;;;;10.88;2.45;;;24.00;70.70;;;;;;5069976;28;20480;-64
2022/08/13 06:40:00;;;;;;;4.75;2.22;;;24.00;70.70;;;;;;5068459;28;20048;-65
2022/08/13 06:42:27;;;;;;;3.33;2.40;;;24.00;70.70;;;;;;5071880;28;20060;-64
2022/08/13 06:44:54;;;;;;;10.07;2.53;;;24.10;70.30;;;;;;5070340;28;20100;-64
2022/08/13 06:47:23;;;;;;;7.13;3.55;;;24.10;70.20;;;;;;5069393;28;20388;-65
2022/08/13 06:49:49;;;;;;;5.82;2.45;;;24.20;70.30;;;;;;5069267;28;20063;-64
2022/08/13 06:52:15;;;;;;;15.43;2.70;;;24.20;70.30;;;;;;5068763;28;20075;-65
2022/08/13 06:54:42;;;;;;;5.22;2.42;;;24.20;70.20;;;;;;5056880;28;20033;-65
2022/08/13 06:57:09;;;;;;;5.10;2.00;;;24.30;70.00;;;;;;5053407;28;20052;-65
2022/08/13 06:59:39;;;;;;;5.30;2.40;;;24.30;70.00;;;;;;5054604;28;20075;-65
2022/08/13 07:02:07;;;;;;;4.53;2.20;;;24.30;70.00;;;;;;5067807;28;20032;-65
2022/08/13 07:04:33;;;;;;;8.27;2.35;;;24.40;70.00;;;;;;5067823;28;20563;-65
2022/08/13 07:06:59;;;;;;;4.53;2.00;;;24.40;69.90;;;;;;5069288;28;20070;-65
2022/08/13 07:09:26;;;;;;;4.90;2.35;;;24.50;70.20;;;;;;5061431;28;20426;-65
2022/08/13 07:11:52;;;;;;;8.00;2.40;;;24.50;70.00;;;;;;5065002;28;20032;-65
2022/08/13 07:14:18;;;;;;;4.07;2.63;;;24.60;70.00;;;;;;5059977;28;20086;-66
2022/08/13 07:16:45;;;;;;;4.05;1.92;;;24.60;70.50;;;;;;5061331;28;20028;-66
2022/08/13 07:19:12;;;;;;;12.48;2.40;;;24.60;69.40;;;;;;5049612;28;20032;-65
2022/08/13 07:21:40;;;;;;;5.97;1.80;;;24.70;69.10;;;;;;5061015;28;20036;-65
2022/08/13 07:24:08;;;;;;;3.22;1.80;;;24.70;68.90;;;;;;5064491;28;20047;-65
2022/08/13 07:26:34;;;;;;;4.45;1.90;;;24.80;68.80;;;;;;5055130;28;20037;-67
2022/08/13 07:29:05;;;;;;;3.63;1.90;;;24.90;68.80;;;;;;5060517;28;20384;-66
2022/08/13 07:31:33;;;;;;;3.58;1.67;;;24.90;68.50;;;;;;5051647;28;20508;-66
2022/08/13 07:34:04;;;;;;;5.10;1.80;;;24.90;68.50;;;;;;5053080;28;20060;-70
2022/08/13 07:36:35;;;;;;;7.90;1.77;;;24.90;68.20;;;;;;5050439;28;20044;-66
2022/08/13 07:39:07;;;;;;;4.18;1.75;;;25.00;68.40;;;;;;5050855;28;20032;-66
2022/08/13 07:41:42;;;;;;;8.70;1.98;;;25.00;68.30;;;;;;5052779;28;20032;-66
2022/08/13 07:44:22;;;;;;;4.93;1.60;;;25.10;68.40;;;;;;5055523;28;20044;-66
2022/08/13 07:46:50;;;;;;;4.20;1.70;;;25.20;67.90;;;;;;5061362;28;20067;-66
2022/08/13 07:49:18;;;;;;;4.25;1.83;;;25.20;67.70;;;;;;5049920;28;20044;-66
2022/08/13 07:51:46;;;;;;;4.30;1.60;;;25.20;67.60;;;;;;5052248;28;20037;-65
2022/08/13 07:54:12;;;;;;;4.72;1.52;;;25.30;67.90;;;;;;5050650;28;20082;-66
2022/08/13 07:56:39;;;;;;;3.63;1.55;;;25.30;67.60;;;;;;5050541;28;20135;-66
2022/08/13 07:59:12;;;;;;;3.70;1.67;;;25.40;67.10;;;;;;5051042;28;20048;-66
2022/08/13 08:01:50;;;;;;;3.47;1.58;;;25.50;67.20;;;;;;5052722;28;20044;-66
2022/08/13 08:04:18;;;;;;;1.63;1.30;;;25.50;67.30;;;;;;5062397;28;20731;-66
2022/08/13 08:06:47;;;;;;;2.47;1.38;;;25.60;66.30;;;;;;5053877;28;20033;-66
2022/08/13 08:09:26;;;;;;;2.83;1.30;;;25.60;66.00;;;;;;5050219;28;20028;-65
2022/08/13 08:14:37;;;;;;;2.55;1.50;;;25.70;66.40;;;;;;5069334;28;20079;-66
2022/08/13 08:17:06;;;;;;;2.70;1.58;;;25.80;66.50;;;;;;5062709;28;20056;-66
2022/08/13 08:19:31;;;;;;;4.13;1.83;;;25.80;66.50;;;;;;5068661;28;20024;-66
2022/08/13 08:22:03;;;;;;;3.42;1.90;;;25.90;66.40;;;;;;5070039;28;20051;-67
2022/08/13 08:24:32;;;;;;;4.00;1.95;;;25.90;66.30;;;;;;5066547;28;20029;-83
2022/08/13 08:27:11;;;;;;;6.82;1.85;;;26.00;66.00;;;;;;5069477;28;20033;-67
2022/08/13 08:29:40;;;;;;;6.43;1.75;;;26.00;66.00;;;;;;5071287;28;20039;-67
2022/08/13 08:32:08;;;;;;;10.95;2.45;;;26.10;65.20;;;;;;5071508;28;20024;-67
2022/08/13 08:34:40;;;;;;;7.78;2.47;;;26.10;64.50;;;;;;5070135;28;20089;-67
2022/08/13 08:37:06;;;;;;;3.25;1.80;;;26.20;64.80;;;;;;5068005;28;20060;-67
2022/08/13 08:42:39;;;;;;;4.15;1.67;;;26.20;63.70;;;;;;5067794;28;20027;-66
2022/08/13 08:45:13;;;;;;;3.65;1.88;;;26.30;63.80;;;;;;5067900;28;20060;-66
2022/08/13 08:47:40;;;;;;;2.70;1.60;;;26.30;64.60;;;;;;5069037;28;20029;-66
2022/08/13 08:50:07;;;;;;;2.53;1.77;;;26.40;64.10;;;;;;5066258;28;20079;-66
2022/08/13 08:55:19;;;;;;;3.20;1.75;;;26.50;64.10;;;;;;5069281;28;20051;-66
2022/08/13 08:57:46;;;;;;;15.77;1.50;;;26.50;63.70;;;;;;5073974;28;20485;-66
2022/08/13 09:00:17;;;;;;;10.40;1.60;;;26.50;63.40;;;;;;5071077;28;20033;-66
2022/08/13 09:02:47;;;;;;;2.83;1.50;;;26.60;63.70;;;;;;5070463;28;20029;-66
2022/08/13 09:05:16;;;;;;;6.40;1.70;;;26.70;63.50;;;;;;5069936;28;20029;-67
2022/08/13 09:07:46;;;;;;;6.53;1.75;;;26.70;63.10;;;;;;5062996;28;20036;-67
2022/08/13 09:10:14;;;;;;;3.47;1.48;;;26.80;63.10;;;;;;5073038;28;20047;-66
2022/08/13 09:12:44;;;;;;;1.90;1.35;;;26.80;63.60;;;;;;5071619;28;20058;-66
2022/08/13 09:15:12;;;;;;;6.10;1.98;;;26.90;64.70;;;;;;5068679;28;20070;-67
2022/08/13 09:17:39;;;;;;;3.33;1.70;;;27.00;64.50;;;;;;5070737;28;20500;-66
2022/08/13 09:20:12;;;;;;;1.52;1.40;;;27.00;65.00;;;;;;5069243;28;20082;-67
2022/08/13 09:22:40;;;;;;;2.03;1.45;;;27.00;63.70;;;;;;5069465;28;20044;-67
2022/08/13 09:25:06;;;;;;;1.85;1.40;;;27.00;62.90;;;;;;5071685;28;20472;-67
2022/08/13 09:27:34;;;;;;;5.45;1.85;;;27.10;62.30;;;;;;5067897;28;20036;-66
2022/08/13 09:30:01;;;;;;;3.03;1.88;;;27.10;61.90;;;;;;5060217;28;20049;-66
2022/08/13 09:32:35;;;;;;;4.22;1.52;;;27.20;62.90;;;;;;5054751;28;20029;-66
2022/08/13 09:35:04;;;;;;;3.17;1.42;;;27.30;62.90;;;;;;5054506;28;20071;-66
2022/08/13 09:37:31;;;;;;;4.53;1.70;;;27.30;63.50;;;;;;5058730;28;20039;-66
2022/08/13 09:40:11;;;;;;;2.58;1.40;;;27.40;62.50;;;;;;5054177;28;20032;-67
2022/08/13 09:42:50;;;;;;;2.05;1.40;;;27.40;63.20;;;;;;5056505;28;20029;-66
2022/08/13 09:45:17;;;;;;;6.63;1.60;;;27.50;63.00;;;;;;5053479;28;20818;-66
2022/08/13 09:47:43;;;;;;;4.05;1.40;;;27.50;62.70;;;;;;5054717;28;20029;-66
2022/08/13 09:50:10;;;;;;;2.97;1.42;;;27.50;62.00;;;;;;5061357;28;20035;-66
2022/08/13 09:52:36;;;;;;;4.25;1.50;;;27.60;62.30;;;;;;5068895;28;20107;-66
2022/08/13 09:55:05;;;;;;;7.13;1.50;;;27.60;62.70;;;;;;5068381;28;20488;-66
2022/08/13 09:57:31;;;;;;;3.72;1.33;;;27.70;62.50;;;;;;5070197;28;20048;-66
2022/08/13 09:59:56;;;;;;;2.45;1.17;;;27.80;61.00;;;;;;5067446;28;20028;-67
2022/08/13 10:02:22;;;;;;;7.70;1.42;;;27.80;61.10;;;;;;5070896;28;20424;-67
2022/08/13 10:04:52;;;;;;;5.65;1.40;;;27.80;60.60;;;;;;5069203;28;20020;-66
2022/08/13 10:07:18;;;;;;;2.80;1.52;;;27.90;59.80;;;;;;5070580;28;20017;-67
2022/08/13 10:09:44;;;;;;;2.38;1.30;;;27.90;59.80;;;;;;5068340;28;20036;-66
2022/08/13 10:12:09;;;;;;;3.30;1.38;;;28.00;60.10;;;;;;5070003;28;20059;-66
2022/08/13 10:14:36;;;;;;;4.35;1.40;;;28.00;59.70;;;;;;5065558;28;20049;-66
2022/08/13 10:17:04;;;;;;;1.83;1.30;;;28.10;60.10;;;;;;5068720;28;20024;-67
2022/08/13 10:19:30;;;;;;;3.05;1.40;;;28.10;59.90;;;;;;5069791;28;20434;-66
2022/08/13 10:21:55;;;;;;;3.85;1.27;;;28.10;59.40;;;;;;5067997;28;20028;-66
2022/08/13 10:24:21;;;;;;;2.47;1.15;;;28.20;59.50;;;;;;5066674;28;20028;-66
2022/08/13 10:26:47;;;;;;;3.70;1.35;;;28.30;61.30;;;;;;5070143;28;20033;-67
2022/08/13 10:29:13;;;;;;;7.53;1.45;;;28.30;60.00;;;;;;5068483;28;20104;-67
2022/08/13 10:31:39;;;;;;;2.00;1.40;;;28.30;59.90;;;;;;5070189;28;20178;-66
2022/08/13 10:34:05;;;;;;;3.67;1.17;;;28.40;59.30;;;;;;5069396;28;20519;-66
2022/08/13 10:36:33;;;;;;;2.47;1.30;;;28.50;59.20;;;;;;5068805;28;20028;-67
2022/08/13 10:38:59;;;;;;;1.83;1.13;;;28.50;58.80;;;;;;5067501;28;20091;-66
2022/08/13 10:41:26;;;;;;;2.95;1.30;;;28.50;58.80;;;;;;5067546;28;20027;-67
2022/08/13 10:43:56;;;;;;;3.90;1.38;;;28.60;58.30;;;;;;5067312;28;20057;-66
2022/08/13 10:46:26;;;;;;;5.15;1.48;;;28.60;57.60;;;;;;5069388;28;20173;-66
2022/08/13 10:48:55;;;;;;;5.40;1.80;;;28.70;57.70;;;;;;5068944;28;20028;-67
2022/08/13 10:51:24;;;;;;;2.63;1.17;;;28.70;57.30;;;;;;5067320;28;20017;-66
2022/08/13 10:53:55;;;;;;;2.28;1.38;;;28.80;56.90;;;;;;5065585;28;20106;-67
2022/08/13 10:56:22;;;;;;;5.20;1.30;;;28.80;57.50;;;;;;5069544;28;20111;-66
2022/08/13 10:58:49;;;;;;;1.98;1.30;;;28.90;57.20;;;;;;5070073;28;20481;-66
2022/08/13 11:01:15;;;;;;;3.88;1.30;;;28.90;58.70;;;;;;5061878;28;20025;-67
2022/08/13 11:03:44;;;;;;;6.28;1.27;;;29.00;57.90;;;;;;5067858;28;20036;-67
2022/08/13 11:06:11;;;;;;;1.50;1.30;;;29.10;59.50;;;;;;5067789;28;20032;-67
2022/08/13 11:08:37;;;;;;;3.33;1.40;;;29.10;59.80;;;;;;5065801;28;20484;-67
2022/08/13 11:11:08;;;;;;;1.45;1.20;;;29.10;59.20;;;;;;5069298;28;20025;-67
2022/08/13 11:13:36;;;;;;;2.30;1.10;;;29.10;60.10;;;;;;5068532;28;20480;-65
2022/08/13 11:16:24;;;;;;;2.20;1.50;;;29.10;59.40;;;;;;5063449;28;20035;-66
2022/08/13 11:18:52;;;;;;;2.25;1.17;;;29.20;59.00;;;;;;5069059;28;20044;-66
2022/08/13 11:21:18;;;;;;;7.45;1.58;;;29.20;59.50;;;;;;5068252;28;20032;-66
2022/08/13 11:23:44;;;;;;;5.18;1.10;;;29.30;60.80;;;;;;5068117;28;20074;-66
2022/08/13 11:26:10;;;;;;;2.65;1.40;;;29.30;61.00;;;;;;5064927;28;20013;-66
2022/08/13 11:28:36;;;;;;;1.38;1.25;;;29.40;60.40;;;;;;5068616;28;20079;-66
2022/08/13 11:31:02;;;;;;;3.00;1.10;;;29.30;60.60;;;;;;5066577;28;20052;-66
2022/08/13 11:33:33;;;;;;;3.03;1.10;;;29.30;61.40;;;;;;5066101;28;20025;-66
2022/08/13 11:35:59;;;;;;;5.68;1.50;;;29.30;61.20;;;;;;5065707;28;20498;-67
2022/08/13 11:38:25;;;;;;;2.05;1.33;;;29.40;62.10;;;;;;5071453;28;20072;-67
2022/08/13 11:40:53;;;;;;;22.77;1.17;;;29.40;61.10;;;;;;5067414;28;20021;-67
2022/08/13 11:43:27;;;;;;;3.05;1.23;;;29.30;61.80;;;;;;5068547;28;20024;-66
2022/08/13 11:45:53;;;;;;;4.57;1.30;;;29.40;62.80;;;;;;5059487;28;20082;-66
2022/08/13 11:48:20;;;;;;;3.05;1.20;;;29.40;63.80;;;;;;5059063;28;20468;-67
2022/08/13 11:50:51;;;;;;;2.33;1.15;;;29.40;62.10;;;;;;5063863;28;20043;-67
2022/08/13 11:53:18;;;;;;;8.02;1.55;;;29.40;62.10;;;;;;5064670;28;20089;-67
2022/08/13 11:55:43;;;;;;;3.42;1.30;;;29.40;61.80;;;;;;5064921;28;20036;-67
2022/08/13 11:58:10;;;;;;;9.50;1.38;;;29.40;62.00;;;;;;5062904;28;20106;-67
2022/08/13 12:00:37;;;;;;;3.25;1.30;;;29.50;62.20;;;;;;5066544;28;20075;-66
2022/08/13 12:03:04;;;;;;;8.13;1.30;;;29.50;62.00;;;;;;5070703;28;20032;-67
2022/08/13 12:05:30;;;;;;;2.47;1.17;;;29.40;62.50;;;;;;5070806;28;20120;-73
2022/08/13 12:07:56;;;;;;;2.80;1.35;;;29.50;62.20;;;;;;5070544;28;20127;-66
2022/08/13 12:10:22;;;;;;;0.73;0.60;;;29.40;62.40;;;;;;5062092;28;20036;-68
2022/08/13 12:12:48;;;;;;;2.90;1.30;;;29.50;63.90;;;;;;5056667;28;20036;-66
2022/08/13 12:15:14;;;;;;;2.15;1.20;;;29.50;63.00;;;;;;5056083;28;20469;-67
2022/08/13 12:17:45;;;;;;;5.65;1.60;;;29.50;62.00;;;;;;5067997;28;20396;-67
2022/08/13 12:20:17;;;;;;;4.07;1.35;;;29.50;61.10;;;;;;5065278;28;20035;-72
2022/08/13 12:22:43;;;;;;;6.97;1.40;;;29.60;62.00;;;;;;5065287;28;20112;-67
2022/08/13 12:25:10;;;;;;;3.38;1.40;;;29.60;63.10;;;;;;5065291;28;20610;-67
2022/08/13 12:27:36;;;;;;;1.58;1.20;;;29.60;61.80;;;;;;5067326;28;20163;-67
2022/08/13 12:30:05;;;;;;;1.20;1.10;;;29.60;61.40;;;;;;5057764;28;20104;-67
2022/08/13 12:32:31;;;;;;;2.13;1.08;;;29.60;61.40;;;;;;5070598;28;20048;-68
2022/08/13 12:34:57;;;;;;;2.63;1.40;;;29.60;61.90;;;;;;5070286;28;20122;-67
2022/08/13 12:37:23;;;;;;;11.88;1.35;;;29.70;62.00;;;;;;5071436;28;20483;-67
2022/08/13 12:39:53;;;;;;;5.03;1.90;;;29.70;61.50;;;;;;5060540;28;20028;-67
2022/08/13 12:42:19;;;;;;;10.85;1.58;;;29.70;60.80;;;;;;5062483;28;20029;-68
2022/08/13 12:44:44;;;;;;;8.40;1.58;;;29.70;62.00;;;;;;5069472;28;20395;-67
2022/08/13 12:47:16;;;;;;;3.08;1.08;;;29.80;61.90;;;;;;5060120;28;20020;-67
2022/08/13 12:49:42;;;;;;;2.80;1.42;;;29.80;62.20;;;;;;5075009;28;20787;-66
2022/08/13 12:52:08;;;;;;;1.88;1.23;;;29.80;61.90;;;;;;5069075;28;20017;-69
2022/08/13 12:54:33;;;;;;;5.97;1.40;;;29.90;62.10;;;;;;5067118;28;20035;-66
2022/08/13 12:56:59;;;;;;;6.72;1.80;;;29.90;61.50;;;;;;5074662;28;20492;-68
2022/08/13 12:59:25;;;;;;;7.40;1.30;;;29.90;61.20;;;;;;5074292;28;20032;-67
2022/08/13 13:01:54;;;;;;;8.60;1.40;;;29.90;62.70;;;;;;5068645;28;20086;-68
2022/08/13 13:04:22;;;;;;;7.25;1.75;;;29.90;61.20;;;;;;5055493;28;20130;-67
2022/08/13 13:06:49;;;;;;;2.60;1.75;;;30.00;61.50;;;;;;5074247;28;20028;-78
2022/08/13 13:09:15;;;;;;;3.58;1.50;;;30.00;61.60;;;;;;5073841;28;20112;-66
2022/08/13 13:11:40;;;;;;;2.45;1.50;;;30.00;62.30;;;;;;5062446;28;20059;-67
2022/08/13 13:14:07;;;;;;;11.38;2.47;;;30.00;60.50;;;;;;5073779;28;20463;-67
2022/08/13 13:16:34;;;;;;;5.50;1.23;;;30.10;60.80;;;;;;5067625;28;20037;-66